createdAt,value
2022-11-26T00:00:44.533Z,74.55
2022-11-26T00:06:06.181Z,66.20
2022-11-26T00:11:27.869Z,94.05
2022-11-26T00:16:49.197Z,83.18
2022-11-26T00:22:39.338Z,58.25
2022-11-26T00:28:01.281Z,82.72
2022-11-26T00:33:23.534Z,96.38
2022-11-26T00:38:47.842Z,76.18
2022-11-26T00:44:35.976Z,30.38
2022-11-26T00:49:58.673Z,13.82
2022-11-26T00:55:19.993Z,9.93
2022-11-26T01:00:42.333Z,16.08
2022-11-26T01:06:03.932Z,8.48
2022-11-26T01:11:25.653Z,8.95
2022-11-26T01:16:48.202Z,79.82
2022-11-26T01:22:29.805Z,10.45
2022-11-26T01:27:51.490Z,10.57
2022-11-26T01:33:12.833Z,12.45
2022-11-26T01:38:34.262Z,7.28
2022-11-26T01:43:58.221Z,7.82
2022-11-26T01:49:27.814Z,13.73
2022-11-26T01:54:50.916Z,8.45
2022-11-26T02:00:13.607Z,9.65
2022-11-26T02:05:46.861Z,11.50
2022-11-26T02:11:21.691Z,16.40
2022-11-26T02:16:53.445Z,5.68
2022-11-26T02:22:36.532Z,6.40
2022-11-26T02:28:27.407Z,8.07
2022-11-26T02:34:11.426Z,14.70
2022-11-26T02:39:33.052Z,9.73
2022-11-26T02:44:57.987Z,7.82
2022-11-26T02:50:26.654Z,4.40
2022-11-26T02:55:53.279Z,7.72
2022-11-26T03:01:40.495Z,7.22
2022-11-26T03:07:05.701Z,4.88
2022-11-26T03:12:27.740Z,10.20
2022-11-26T03:17:49.280Z,7.40
2022-11-26T03:23:10.664Z,13.23
2022-11-26T03:28:34.775Z,18.48
2022-11-26T03:33:56.024Z,9.93
2022-11-26T03:39:18.137Z,8.73
2022-11-26T03:44:39.696Z,11.48
2022-11-26T03:50:02.070Z,8.57
2022-11-26T03:55:24.230Z,14.10
2022-11-26T04:00:47.027Z,8.52
2022-11-26T04:06:08.926Z,6.22
2022-11-26T04:11:30.597Z,8.60
2022-11-26T04:16:52.092Z,11.75
2022-11-26T04:22:13.583Z,10.93
2022-11-26T04:27:35.128Z,7.97
2022-11-26T04:32:56.808Z,8.45
2022-11-26T04:38:22.803Z,4.95
2022-11-26T04:43:46.929Z,8.75
2022-11-26T04:49:08.432Z,9.10
2022-11-26T04:54:30.019Z,5.68
2022-11-26T04:59:51.214Z,7.25
2022-11-26T05:05:13.850Z,7.03
2022-11-26T05:10:37.652Z,7.28
2022-11-26T05:15:59.011Z,4.60
2022-11-26T05:21:20.279Z,4.20
2022-11-26T05:26:41.731Z,13.02
2022-11-26T05:32:03.696Z,8.30
2022-11-26T05:37:25.215Z,4.03
2022-11-26T05:42:46.800Z,11.73
2022-11-26T05:48:08.307Z,16.88
2022-11-26T05:53:30.686Z,7.70
2022-11-26T05:58:51.912Z,5.90
2022-11-26T06:04:13.412Z,19.33
2022-11-26T06:09:35.599Z,8.07
2022-11-26T06:14:57.454Z,10.75
2022-11-26T06:20:19.393Z,13.55
2022-11-26T06:25:42.308Z,9.63
2022-11-26T06:31:03.838Z,5.88
2022-11-26T06:36:26.521Z,27.52
2022-11-26T06:41:48.135Z,7.93
2022-11-26T06:47:13.865Z,11.30
2022-11-26T06:52:35.815Z,5.93
2022-11-26T06:57:57.595Z,6.30
2022-11-26T07:03:23.626Z,6.95
2022-11-26T07:08:47.698Z,4.43
2022-11-26T07:14:10.215Z,7.38
2022-11-26T07:19:32.002Z,5.95
2022-11-26T07:24:53.452Z,5.00
2022-11-26T07:30:15.134Z,8.30
2022-11-26T07:35:38.138Z,5.57
2022-11-26T07:41:07.051Z,6.45
2022-11-26T07:46:28.721Z,5.32
2022-11-26T07:51:50.349Z,4.93
2022-11-26T07:57:11.931Z,8.07
2022-11-26T08:02:33.707Z,4.55
2022-11-26T08:07:55.483Z,7.43
2022-11-26T08:13:17.199Z,5.78
2022-11-26T08:18:39.083Z,9.07
2022-11-26T08:24:01.058Z,11.55
2022-11-26T08:29:22.271Z,6.65
2022-11-26T08:34:43.934Z,6.45
2022-11-26T08:40:06.594Z,6.22
2022-11-26T08:45:28.164Z,7.65
2022-11-26T08:50:49.887Z,5.45
2022-11-26T08:56:13.506Z,5.85
2022-11-26T09:01:35.376Z,5.72
2022-11-26T09:06:57.588Z,5.25
2022-11-26T09:12:18.842Z,4.38
2022-11-26T09:17:40.384Z,4.25
2022-11-26T09:23:02.068Z,4.80
2022-11-26T09:28:24.722Z,4.15
2022-11-26T09:33:46.649Z,2.25
2022-11-26T09:39:08.384Z,2.88
2022-11-26T09:44:48.163Z,2.97
2022-11-26T09:50:16.634Z,1.55
2022-11-26T09:55:41.862Z,2.65
2022-11-26T10:01:06.408Z,10.82
2022-11-26T10:06:42.114Z,2.17
2022-11-26T10:12:50.496Z,4.97
2022-11-26T10:18:36.100Z,2.95
2022-11-26T10:24:10.570Z,4.97
2022-11-26T10:29:41.137Z,5.63
2022-11-26T10:35:02.603Z,4.97
2022-11-26T10:40:32.393Z,4.05
2022-11-26T10:45:56.487Z,4.00
2022-11-26T10:51:31.033Z,3.50
2022-11-26T10:56:55.510Z,3.40
2022-11-26T11:02:29.156Z,2.47
2022-11-26T11:07:55.115Z,2.63
2022-11-26T11:13:16.327Z,1.90
2022-11-26T11:18:37.691Z,4.82
2022-11-26T11:24:23.349Z,3.25
2022-11-26T11:29:46.738Z,4.10
2022-11-26T11:35:20.313Z,2.70
2022-11-26T11:40:42.542Z,3.58
2022-11-26T11:46:33.685Z,1.95
2022-11-26T11:52:19.435Z,4.75
2022-11-26T11:58:05.188Z,9.57
2022-11-26T12:03:38.703Z,2.47
2022-11-26T12:09:08.387Z,1.35
2022-11-26T12:14:36.531Z,1.38
2022-11-26T12:20:22.619Z,1.65
2022-11-26T12:25:48.574Z,3.60
2022-11-26T12:31:39.608Z,3.38
2022-11-26T12:37:07.235Z,4.93
2022-11-26T12:42:42.278Z,3.53
2022-11-26T12:48:16.888Z,5.13
2022-11-26T12:53:48.094Z,4.90
2022-11-26T12:59:36.381Z,3.22
2022-11-26T13:04:59.369Z,3.17
2022-11-26T13:10:39.082Z,11.35
2022-11-26T13:16:16.252Z,3.88
2022-11-26T13:22:03.787Z,3.80
2022-11-26T13:27:55.830Z,2.80
2022-11-26T13:33:52.857Z,6.75
2022-11-26T13:39:36.459Z,4.30
2022-11-26T13:45:44.440Z,3.97
2022-11-26T13:51:18.678Z,4.53
2022-11-26T13:56:42.155Z,7.05
2022-11-26T14:02:37.843Z,6.13
2022-11-26T14:08:35.815Z,8.48
2022-11-26T14:14:33.669Z,5.25
2022-11-26T14:19:57.176Z,12.07
2022-11-26T14:25:38.333Z,5.47
2022-11-26T14:36:55.765Z,10.55
2022-11-26T14:42:20.078Z,7.90
2022-11-26T14:47:44.585Z,9.10
2022-11-26T14:53:07.222Z,8.77
2022-11-26T14:58:57.713Z,7.57
2022-11-26T15:04:39.244Z,6.47
2022-11-26T15:10:20.965Z,7.38
2022-11-26T15:15:57.965Z,8.95
2022-11-26T15:21:23.549Z,9.30
2022-11-26T15:26:47.659Z,14.35
2022-11-26T15:32:26.012Z,14.18
2022-11-26T15:37:47.594Z,10.77
2022-11-26T15:43:38.143Z,9.85
2022-11-26T15:49:18.151Z,8.77
2022-11-26T15:55:10.818Z,12.00
2022-11-26T16:00:33.007Z,10.73
2022-11-26T16:05:56.535Z,13.33
2022-11-26T16:11:21.946Z,9.30
2022-11-26T16:16:46.350Z,15.27
2022-11-26T16:22:16.342Z,16.77
2022-11-26T16:27:37.813Z,12.93
2022-11-26T16:33:00.653Z,14.73
2022-11-26T16:38:26.536Z,14.85
2022-11-26T16:43:48.954Z,12.73
2022-11-26T16:49:11.123Z,8.27
2022-11-26T16:54:32.603Z,12.10
2022-11-26T17:00:03.840Z,13.07
2022-11-26T17:05:25.278Z,9.38
2022-11-26T17:10:51.452Z,12.98
2022-11-26T17:16:22.073Z,8.25
2022-11-26T17:21:44.137Z,10.60
2022-11-26T17:27:12.728Z,8.48
2022-11-26T17:32:34.294Z,9.90
2022-11-26T17:37:55.895Z,11.40
2022-11-26T17:43:18.524Z,15.88
2022-11-26T17:48:40.379Z,10.40
2022-11-26T17:54:03.497Z,9.75
2022-11-26T17:59:25.144Z,10.20
2022-11-26T18:04:47.038Z,9.10
2022-11-26T18:10:13.740Z,12.55
2022-11-26T18:15:35.413Z,8.15
2022-11-26T18:20:56.946Z,9.07
2022-11-26T18:26:19.101Z,7.28
2022-11-26T18:31:40.407Z,9.48
2022-11-26T18:37:01.834Z,8.90
2022-11-26T18:42:39.004Z,7.60
2022-11-26T18:48:01.388Z,7.25
2022-11-26T18:53:22.991Z,10.55
2022-11-26T18:58:45.149Z,8.45
2022-11-26T19:04:06.577Z,8.57
2022-11-26T19:09:29.609Z,8.93
2022-11-26T19:14:50.890Z,11.82
2022-11-26T19:20:14.196Z,9.00
2022-11-26T19:25:38.171Z,7.72
2022-11-26T19:31:09.575Z,9.50
2022-11-26T19:36:31.122Z,10.88
2022-11-26T19:41:54.070Z,11.63
2022-11-26T19:47:15.550Z,6.30
2022-11-26T19:52:37.840Z,7.93
2022-11-26T19:57:59.431Z,8.60
2022-11-26T20:03:21.933Z,9.38
2022-11-26T20:08:44.179Z,10.43
2022-11-26T20:14:05.840Z,13.18
2022-11-26T20:19:27.070Z,10.00
2022-11-26T20:24:48.219Z,8.93
2022-11-26T20:30:11.442Z,11.40
2022-11-26T20:35:32.903Z,7.65
2022-11-26T20:40:54.157Z,15.20
2022-11-26T20:46:15.880Z,10.07
2022-11-26T20:51:37.748Z,9.48
2022-11-26T20:57:00.030Z,11.45
2022-11-26T21:02:22.669Z,7.50
2022-11-26T21:07:45.105Z,9.98
2022-11-26T21:13:08.167Z,8.50
2022-11-26T21:18:29.849Z,9.15
2022-11-26T21:23:51.656Z,7.70
2022-11-26T21:29:13.044Z,8.63
2022-11-26T21:34:34.479Z,9.98
2022-11-26T21:39:57.276Z,12.90
2022-11-26T21:45:18.643Z,9.07
2022-11-26T21:50:40.267Z,9.05
2022-11-26T21:56:18.836Z,9.45
2022-11-26T22:01:40.858Z,7.40
2022-11-26T22:07:02.490Z,10.60
2022-11-26T22:12:24.559Z,8.25
2022-11-26T22:17:46.272Z,11.38
2022-11-26T22:23:07.782Z,7.43
2022-11-26T22:28:30.491Z,7.55
2022-11-26T22:33:55.646Z,10.57
2022-11-26T22:39:18.629Z,6.10
2022-11-26T22:44:40.057Z,7.30
2022-11-26T22:50:01.689Z,9.15
2022-11-26T22:55:24.178Z,4.70
2022-11-26T23:00:57.379Z,8.90
2022-11-26T23:06:21.383Z,7.47
2022-11-26T23:11:44.417Z,7.70
2022-11-26T23:17:05.769Z,7.57
2022-11-26T23:22:27.876Z,7.78
2022-11-26T23:27:49.393Z,7.15
2022-11-26T23:33:11.022Z,6.75
2022-11-26T23:38:32.975Z,11.38
2022-11-26T23:43:54.904Z,8.60
2022-11-26T23:49:16.513Z,5.55
2022-11-26T23:54:37.944Z,8.95
2022-11-26T23:59:59.648Z,7.97
